createdAt,value
2018-05-16T00:00:34.842Z,16.33
2018-05-16T00:03:03.802Z,16.43
2018-05-16T00:05:33.907Z,16.43
2018-05-16T00:08:03.221Z,16.43
2018-05-16T00:10:32.805Z,16.29
2018-05-16T00:13:01.159Z,16.33
2018-05-16T00:15:30.773Z,16.36
2018-05-16T00:18:00.171Z,16.37
2018-05-16T00:20:29.278Z,16.42
2018-05-16T00:22:58.434Z,16.44
2018-05-16T00:25:27.555Z,16.41
2018-05-16T00:27:56.684Z,16.30
2018-05-16T00:30:24.979Z,16.13
2018-05-16T00:32:54.241Z,16.26
2018-05-16T00:35:23.330Z,16.24
2018-05-16T00:37:52.807Z,16.32
2018-05-16T00:40:22.450Z,16.29
2018-05-16T00:42:50.762Z,16.29
2018-05-16T00:45:19.106Z,16.24
2018-05-16T00:47:48.498Z,16.42
2018-05-16T00:50:20.409Z,16.32
2018-05-16T00:52:49.380Z,16.30
2018-05-16T00:55:18.793Z,16.20
2018-05-16T00:57:47.717Z,16.16
2018-05-16T01:00:16.090Z,16.28
2018-05-16T01:02:44.454Z,15.96
2018-05-16T01:05:13.673Z,15.97
2018-05-16T01:07:42.010Z,16.13
2018-05-16T01:10:11.228Z,16.23
2018-05-16T01:12:39.526Z,16.11
2018-05-16T01:15:08.986Z,16.09
2018-05-16T01:17:38.071Z,16.06
2018-05-16T01:20:06.383Z,15.98
2018-05-16T01:22:34.973Z,15.86
2018-05-16T01:25:03.688Z,15.87
2018-05-16T01:27:32.690Z,15.98
2018-05-16T01:30:01.052Z,15.87
2018-05-16T01:32:29.830Z,15.95
2018-05-16T01:34:58.828Z,15.74
2018-05-16T01:37:28.610Z,15.80
2018-05-16T01:39:57.900Z,15.80
2018-05-16T01:42:26.130Z,15.74
2018-05-16T01:44:55.415Z,15.79
2018-05-16T01:47:23.710Z,15.79
2018-05-16T01:49:52.708Z,15.82
2018-05-16T01:52:21.084Z,15.79
2018-05-16T01:54:49.968Z,15.80
2018-05-16T01:57:19.056Z,15.84
2018-05-16T01:59:47.890Z,15.90
2018-05-16T02:02:16.324Z,15.85
2018-05-16T02:04:44.625Z,15.85
2018-05-16T02:07:12.918Z,15.84
2018-05-16T02:09:41.901Z,15.92
2018-05-16T02:12:10.636Z,15.99
2018-05-16T02:14:39.783Z,15.92
2018-05-16T02:17:09.176Z,15.86
2018-05-16T02:19:38.242Z,15.82
2018-05-16T02:22:07.340Z,15.66
2018-05-16T02:24:35.642Z,15.78
2018-05-16T02:27:03.933Z,15.81
2018-05-16T02:29:33.022Z,15.64
2018-05-16T02:32:01.324Z,15.72
2018-05-16T02:34:29.821Z,15.69
2018-05-16T02:36:58.895Z,15.62
2018-05-16T02:39:27.191Z,15.62
2018-05-16T02:41:55.489Z,15.62
2018-05-16T02:44:24.556Z,15.59
2018-05-16T02:46:53.706Z,15.50
2018-05-16T02:49:22.009Z,15.47
2018-05-16T02:51:50.409Z,15.55
2018-05-16T02:54:18.948Z,15.57
2018-05-16T02:56:47.665Z,15.62
2018-05-16T02:59:16.356Z,15.60
2018-05-16T03:01:44.943Z,15.59
2018-05-16T03:04:13.317Z,15.60
2018-05-16T03:06:41.638Z,15.61
2018-05-16T03:09:10.737Z,15.68
2018-05-16T03:11:39.800Z,15.59
2018-05-16T03:14:08.141Z,15.59
2018-05-16T03:16:36.630Z,15.64
2018-05-16T03:19:05.220Z,15.65
2018-05-16T03:21:35.210Z,15.68
2018-05-16T03:24:04.274Z,15.68
2018-05-16T03:26:32.858Z,15.67
2018-05-16T03:29:01.160Z,15.69
2018-05-16T03:31:30.303Z,15.70
2018-05-16T03:33:58.559Z,15.70
2018-05-16T03:36:26.868Z,15.70
2018-05-16T03:38:56.443Z,15.66
2018-05-16T03:41:24.791Z,15.55
2018-05-16T03:43:54.890Z,15.47
2018-05-16T03:46:23.875Z,15.59
2018-05-16T03:48:52.166Z,15.83
2018-05-16T03:51:21.293Z,15.77
2018-05-16T03:53:50.998Z,15.73
2018-05-16T03:56:20.813Z,15.80
2018-05-16T03:59:07.557Z,15.73
2018-05-16T04:01:53.579Z,15.71
2018-05-16T04:04:21.896Z,15.65
2018-05-16T04:06:50.957Z,15.67
2018-05-16T04:09:19.334Z,15.67
2018-05-16T04:11:47.707Z,15.61
2018-05-16T04:14:16.102Z,15.61
2018-05-16T04:16:44.418Z,15.61
2018-05-16T04:19:13.703Z,15.61
2018-05-16T04:21:43.650Z,15.66
2018-05-16T04:24:12.698Z,15.66
2018-05-16T04:26:41.081Z,15.65
2018-05-16T04:29:09.737Z,15.63
2018-05-16T04:31:38.135Z,15.72
2018-05-16T04:34:06.433Z,15.70
2018-05-16T04:36:34.754Z,15.62
2018-05-16T04:39:03.152Z,15.73
2018-05-16T04:41:31.969Z,15.81
2018-05-16T04:44:01.830Z,15.85
2018-05-16T04:46:30.906Z,15.90
2018-05-16T04:48:59.205Z,15.87
2018-05-16T04:51:28.548Z,15.97
2018-05-16T04:53:57.661Z,15.91
2018-05-16T04:56:25.951Z,15.84
2018-05-16T04:58:55.162Z,15.96
2018-05-16T05:01:25.157Z,15.88
2018-05-16T05:03:53.451Z,15.92
2018-05-16T05:06:23.279Z,15.85
2018-05-16T05:08:52.547Z,15.85
2018-05-16T05:11:21.557Z,15.87
2018-05-16T05:13:50.739Z,15.81
2018-05-16T05:16:19.059Z,15.81
2018-05-16T05:18:47.872Z,15.91
2018-05-16T05:21:16.329Z,15.98
2018-05-16T05:23:45.482Z,16.06
2018-05-16T05:26:14.490Z,16.08
2018-05-16T05:28:43.031Z,16.17
2018-05-16T05:31:12.016Z,16.05
2018-05-16T05:33:40.358Z,16.12
2018-05-16T05:36:09.533Z,16.19
2018-05-16T05:38:37.868Z,16.07
2018-05-16T05:41:06.177Z,16.30
2018-05-16T05:43:34.945Z,16.39
2018-05-16T05:46:04.054Z,16.47
2018-05-16T05:48:32.529Z,16.83
2018-05-16T05:51:02.277Z,16.86
2018-05-16T05:53:30.570Z,16.81
2018-05-16T05:55:59.751Z,16.76
2018-05-16T05:58:28.040Z,16.87
2018-05-16T06:00:56.786Z,17.02
2018-05-16T06:03:25.192Z,16.99
2018-05-16T06:05:54.296Z,17.11
2018-05-16T06:08:23.567Z,17.25
2018-05-16T06:10:52.074Z,17.29
2018-05-16T06:13:20.892Z,17.38
2018-05-16T06:15:49.983Z,17.38
2018-05-16T06:18:18.329Z,17.49
2018-05-16T06:20:46.839Z,17.52
2018-05-16T06:23:15.960Z,17.63
2018-05-16T06:25:44.326Z,17.77
2018-05-16T06:28:14.137Z,17.82
2018-05-16T06:30:43.092Z,17.85
2018-05-16T06:33:11.404Z,18.04
2018-05-16T06:35:40.540Z,18.05
2018-05-16T06:38:09.069Z,18.34
2018-05-16T06:40:38.091Z,18.49
2018-05-16T06:43:07.156Z,18.60
2018-05-16T06:45:35.580Z,18.61
2018-05-16T06:48:04.670Z,18.83
2018-05-16T06:50:33.722Z,18.94
2018-05-16T06:53:02.070Z,19.12
2018-05-16T06:55:30.380Z,19.29
2018-05-16T06:57:59.338Z,19.34
2018-05-16T07:00:29.095Z,19.44
2018-05-16T07:02:57.419Z,19.55
2018-05-16T07:05:26.599Z,19.59
2018-05-16T07:07:55.393Z,19.74
2018-05-16T07:10:25.476Z,19.70
2018-05-16T07:12:53.778Z,19.87
2018-05-16T07:15:22.070Z,19.94
2018-05-16T07:17:50.726Z,20.23
2018-05-16T07:20:19.023Z,20.17
2018-05-16T07:22:47.353Z,20.11
2018-05-16T07:25:16.054Z,20.17
2018-05-16T07:27:44.863Z,20.11
2018-05-16T07:30:13.892Z,20.25
2018-05-16T07:32:43.256Z,20.32
2018-05-16T07:35:13.082Z,20.32
2018-05-16T07:37:42.139Z,20.21
2018-05-16T07:40:10.413Z,20.39
2018-05-16T07:42:38.737Z,20.08
2018-05-16T07:45:07.311Z,20.03
2018-05-16T07:47:35.957Z,20.04
2018-05-16T07:50:04.260Z,20.04
2018-05-16T07:52:32.661Z,20.19
2018-05-16T07:55:02.039Z,20.17
2018-05-16T07:57:30.438Z,20.13
2018-05-16T07:59:58.722Z,20.03
2018-05-16T08:02:27.334Z,20.03
2018-05-16T08:04:56.809Z,20.20
2018-05-16T08:07:25.921Z,20.15
2018-05-16T08:09:54.997Z,20.16
2018-05-16T08:12:23.319Z,20.13
2018-05-16T08:14:52.744Z,20.21
2018-05-16T08:17:21.730Z,20.41
2018-05-16T08:19:50.855Z,20.46
2018-05-16T08:22:19.416Z,20.31
2018-05-16T08:24:48.303Z,20.38
2018-05-16T08:27:16.737Z,20.46
2018-05-16T08:29:45.554Z,20.53
2018-05-16T08:32:15.367Z,20.69
2018-05-16T08:34:45.149Z,20.64
2018-05-16T08:37:13.451Z,20.72
2018-05-16T08:39:41.806Z,20.63
2018-05-16T08:42:10.631Z,20.61
2018-05-16T08:44:39.700Z,20.66
2018-05-16T08:47:08.578Z,20.49
2018-05-16T08:49:37.076Z,20.42
2018-05-16T08:52:05.382Z,20.67
2018-05-16T08:54:34.634Z,20.81
2018-05-16T08:57:04.421Z,20.90
2018-05-16T08:59:33.432Z,20.82
2018-05-16T09:02:01.827Z,20.78
2018-05-16T09:04:30.924Z,21.01
2018-05-16T09:06:59.817Z,21.13
2018-05-16T09:09:28.810Z,21.06
2018-05-16T09:11:57.617Z,21.36
2018-05-16T09:14:25.953Z,21.31
2018-05-16T09:16:55.946Z,21.54
2018-05-16T09:19:25.420Z,21.94
2018-05-16T09:21:54.101Z,21.90
2018-05-16T09:24:22.413Z,21.79
2018-05-16T09:26:50.950Z,21.81
2018-05-16T09:29:19.388Z,21.87
2018-05-16T09:31:48.453Z,21.69
2018-05-16T09:34:18.341Z,21.60
2018-05-16T09:36:47.385Z,21.63
2018-05-16T09:39:17.142Z,21.67
2018-05-16T09:41:45.651Z,21.66
2018-05-16T09:44:15.002Z,21.76
2018-05-16T09:46:43.719Z,21.78
2018-05-16T09:49:12.560Z,21.93
2018-05-16T09:51:41.710Z,22.02
2018-05-16T09:54:10.034Z,22.08
2018-05-16T09:56:39.740Z,22.20
2018-05-16T09:59:08.937Z,22.42
2018-05-16T10:01:37.969Z,22.36
2018-05-16T10:04:06.420Z,22.33
2018-05-16T10:06:34.786Z,22.28
2018-05-16T10:09:03.345Z,22.43
2018-05-16T10:11:31.631Z,22.53
2018-05-16T10:14:00.174Z,22.61
2018-05-16T10:16:29.024Z,22.53
2018-05-16T10:18:57.384Z,22.66
2018-05-16T10:21:25.961Z,22.83
2018-05-16T10:23:54.783Z,23.01
2018-05-16T10:26:24.654Z,23.00
2018-05-16T10:28:52.963Z,23.13
2018-05-16T10:31:21.595Z,23.19
2018-05-16T10:33:49.961Z,23.19
2018-05-16T10:36:19.045Z,23.32
2018-05-16T10:38:48.145Z,23.18
2018-05-16T10:41:17.256Z,23.32
2018-05-16T10:43:45.515Z,23.39
2018-05-16T10:46:14.809Z,23.53
2018-05-16T10:48:43.140Z,23.62
2018-05-16T10:51:11.434Z,23.68
2018-05-16T10:53:39.756Z,23.68
2018-05-16T10:56:09.337Z,23.75
2018-05-16T10:58:37.621Z,23.80
2018-05-16T11:01:05.958Z,23.85
2018-05-16T11:03:34.248Z,23.93
2018-05-16T11:06:02.545Z,23.89
2018-05-16T11:08:31.714Z,23.99
2018-05-16T11:11:00.504Z,24.06
2018-05-16T11:13:28.801Z,24.09
2018-05-16T11:15:57.105Z,24.20
2018-05-16T11:18:25.635Z,24.28
2018-05-16T11:20:53.949Z,24.45
2018-05-16T11:23:22.556Z,24.41
2018-05-16T11:25:51.315Z,24.65
2018-05-16T11:28:20.474Z,24.78
2018-05-16T11:30:49.591Z,24.85
2018-05-16T11:33:17.895Z,24.91
2018-05-16T11:35:46.245Z,24.99
2018-05-16T11:38:14.590Z,24.74
2018-05-16T11:40:43.797Z,24.79
2018-05-16T11:43:13.422Z,24.92
2018-05-16T11:45:41.759Z,25.00
2018-05-16T11:48:11.648Z,24.99
2018-05-16T11:50:40.054Z,25.13
2018-05-16T11:53:09.271Z,25.26
2018-05-16T11:55:38.341Z,25.54
2018-05-16T11:58:07.377Z,25.44
2018-05-16T12:00:36.562Z,25.52
2018-05-16T12:03:05.641Z,25.62
2018-05-16T12:05:33.943Z,25.73
2018-05-16T12:08:03.010Z,25.70
2018-05-16T12:10:31.352Z,25.93
2018-05-16T12:13:01.694Z,26.10
2018-05-16T12:15:29.997Z,26.13
2018-05-16T12:17:59.575Z,26.41
2018-05-16T12:20:28.104Z,27.09
2018-05-16T12:22:57.391Z,27.43
2018-05-16T12:25:26.245Z,28.70
2018-05-16T12:27:55.174Z,29.89
2018-05-16T12:30:23.485Z,31.49
2018-05-16T12:32:52.591Z,30.26
2018-05-16T12:35:20.887Z,31.14
2018-05-16T12:37:49.664Z,31.58
2018-05-16T12:40:18.342Z,33.01
2018-05-16T12:46:03.518Z,33.09
2018-05-16T12:48:33.452Z,32.14
2018-05-16T12:51:02.902Z,32.40
2018-05-16T12:53:32.101Z,32.61
2018-05-16T12:56:00.595Z,32.71
2018-05-16T12:58:29.064Z,33.10
2018-05-16T13:00:57.362Z,31.34
2018-05-16T13:03:25.661Z,32.42
2018-05-16T13:05:54.800Z,33.35
2018-05-16T13:08:23.114Z,33.41
2018-05-16T13:10:51.434Z,32.92
2018-05-16T13:13:21.711Z,31.92
2018-05-16T13:15:50.245Z,33.79
2018-05-16T13:18:18.519Z,32.75
2018-05-16T13:20:47.457Z,33.69
2018-05-16T13:23:16.378Z,33.36
2018-05-16T13:25:46.665Z,34.50
2018-05-16T13:28:14.954Z,34.13
2018-05-16T13:30:43.269Z,34.29
2018-05-16T13:33:12.803Z,34.16
2018-05-16T13:35:41.120Z,32.87
2018-05-16T13:38:09.702Z,32.53
2018-05-16T13:40:38.467Z,32.48
2018-05-16T13:43:06.765Z,32.84
2018-05-16T13:45:35.256Z,32.92
2018-05-16T13:48:03.920Z,32.38
2018-05-16T13:50:32.215Z,32.49
2018-05-16T13:53:00.524Z,32.64
2018-05-16T13:55:28.834Z,32.41
2018-05-16T13:57:57.153Z,31.61
2018-05-16T14:00:25.471Z,32.78
2018-05-16T14:02:54.797Z,31.93
2018-05-16T14:05:23.530Z,32.83
2018-05-16T14:07:51.861Z,33.58
2018-05-16T14:10:20.548Z,33.04
2018-05-16T14:12:48.840Z,32.67
2018-05-16T14:15:17.698Z,33.05
2018-05-16T14:17:45.973Z,34.12
2018-05-16T14:20:15.030Z,33.32
2018-05-16T14:22:43.332Z,31.60
2018-05-16T14:25:11.678Z,30.21
2018-05-16T14:27:40.142Z,29.40
2018-05-16T14:30:08.786Z,28.87
2018-05-16T14:32:38.156Z,27.61
2018-05-16T14:35:06.474Z,27.69
2018-05-16T14:37:36.589Z,28.22
2018-05-16T14:40:05.677Z,29.69
2018-05-16T14:42:34.317Z,31.12
2018-05-16T14:45:04.139Z,32.23
2018-05-16T14:47:32.441Z,31.35
2018-05-16T14:50:00.877Z,31.57
2018-05-16T14:52:29.770Z,31.50
2018-05-16T14:54:58.063Z,31.00
2018-05-16T14:57:26.365Z,30.89
2018-05-16T14:59:55.554Z,31.33
2018-05-16T15:02:23.965Z,31.39
2018-05-16T15:04:52.268Z,32.14
2018-05-16T15:07:21.429Z,32.33
2018-05-16T15:09:50.116Z,32.52
2018-05-16T15:12:19.098Z,33.28
2018-05-16T15:14:48.610Z,33.45
2018-05-16T15:17:16.990Z,33.16
2018-05-16T15:19:45.300Z,32.49
2018-05-16T15:22:14.502Z,32.78
2018-05-16T15:24:44.329Z,33.08
2018-05-16T15:27:13.489Z,32.40
2018-05-16T15:29:41.730Z,31.59
2018-05-16T15:32:10.103Z,31.83
2018-05-16T15:34:39.096Z,32.49
2018-05-16T15:37:08.091Z,32.38
2018-05-16T15:39:36.900Z,31.12
2018-05-16T15:42:05.730Z,32.08
2018-05-16T15:44:34.834Z,31.66
2018-05-16T15:47:03.896Z,32.09
2018-05-16T15:49:32.181Z,31.76
2018-05-16T15:52:01.566Z,30.94
2018-05-16T15:54:31.124Z,31.39
2018-05-16T15:57:01.007Z,31.10
2018-05-16T15:59:29.861Z,31.17
2018-05-16T16:01:58.484Z,31.35
2018-05-16T16:04:27.313Z,31.30
2018-05-16T16:06:57.263Z,31.36
2018-05-16T16:09:25.552Z,31.61
2018-05-16T16:11:53.973Z,32.15
2018-05-16T16:14:25.157Z,31.57
2018-05-16T16:16:53.503Z,30.65
2018-05-16T16:19:23.154Z,29.18
2018-05-16T16:21:51.445Z,28.92
2018-05-16T16:24:20.461Z,28.74
2018-05-16T16:26:48.789Z,29.20
2018-05-16T16:29:18.151Z,29.58
2018-05-16T16:31:47.263Z,29.53
2018-05-16T16:34:16.396Z,28.43
2018-05-16T16:36:45.541Z,28.73
2018-05-16T16:39:13.914Z,29.49
2018-05-16T16:41:42.551Z,29.92
2018-05-16T16:44:11.690Z,30.73
2018-05-16T16:46:40.444Z,30.09
2018-05-16T16:49:08.807Z,30.22
2018-05-16T16:51:37.934Z,30.21
2018-05-16T16:54:06.867Z,29.11
2018-05-16T16:56:35.196Z,29.97
2018-05-16T16:59:03.500Z,29.65
2018-05-16T17:01:33.601Z,30.24
2018-05-16T17:04:01.930Z,30.16
2018-05-16T17:06:30.276Z,30.08
2018-05-16T17:08:58.575Z,29.17
2018-05-16T17:11:26.910Z,29.82
2018-05-16T17:13:55.929Z,29.91
2018-05-16T17:16:24.877Z,29.53
2018-05-16T17:18:54.537Z,29.89
2018-05-16T17:21:23.366Z,29.85
2018-05-16T17:23:54.260Z,29.57
2018-05-16T17:26:23.559Z,28.73
2018-05-16T17:28:55.816Z,28.64
2018-05-16T17:31:27.773Z,27.95
2018-05-16T17:33:56.407Z,26.74
2018-05-16T17:36:25.555Z,26.62
2018-05-16T17:38:54.008Z,26.06
2018-05-16T17:41:23.781Z,25.67
2018-05-16T17:43:53.878Z,25.64
2018-05-16T17:46:22.355Z,25.44
2018-05-16T17:48:51.930Z,25.10
2018-05-16T17:51:21.911Z,25.01
2018-05-16T17:53:50.937Z,24.67
2018-05-16T17:56:19.253Z,24.23
2018-05-16T17:58:47.746Z,23.90
2018-05-16T18:01:17.959Z,23.87
2018-05-16T18:03:46.293Z,23.74
2018-05-16T18:06:15.492Z,23.66
2018-05-16T18:08:44.670Z,23.56
2018-05-16T18:11:13.419Z,23.42
2018-05-16T18:14:08.795Z,23.20
2018-05-16T18:19:51.815Z,22.73
2018-05-16T18:22:20.262Z,22.58
2018-05-16T18:24:48.803Z,22.39
2018-05-16T18:27:19.182Z,22.18
2018-05-16T18:29:47.987Z,22.24
2018-05-16T18:32:16.382Z,22.06
2018-05-16T18:34:44.761Z,22.11
2018-05-16T18:37:13.974Z,21.77
2018-05-16T18:39:42.538Z,21.73
2018-05-16T18:42:11.140Z,21.80
2018-05-16T18:44:39.494Z,21.65
2018-05-16T18:47:10.259Z,21.47
2018-05-16T18:49:38.791Z,21.50
2018-05-16T18:52:07.438Z,21.44
2018-05-16T18:54:36.521Z,21.44
2018-05-16T18:57:04.855Z,21.31
2018-05-16T18:59:34.150Z,21.19
2018-05-16T19:02:03.133Z,21.11
2018-05-16T19:04:32.045Z,20.91
2018-05-16T19:07:01.106Z,20.92
2018-05-16T19:09:30.339Z,20.86
2018-05-16T19:11:58.637Z,20.80
2018-05-16T19:14:27.952Z,20.76
2018-05-16T19:16:56.366Z,20.73
2018-05-16T19:19:25.928Z,20.62
2018-05-16T19:21:55.238Z,20.49
2018-05-16T19:24:23.865Z,20.39
2018-05-16T19:26:52.946Z,20.31
2018-05-16T19:29:21.889Z,20.25
2018-05-16T19:31:51.855Z,20.14
2018-05-16T19:34:20.488Z,20.09
2018-05-16T19:36:49.429Z,19.95
2018-05-16T19:39:20.038Z,19.85
2018-05-16T19:41:49.134Z,19.83
2018-05-16T19:44:17.449Z,19.80
2018-05-16T19:46:48.337Z,19.64
2018-05-16T19:49:19.020Z,19.54
2018-05-16T19:51:47.348Z,19.33
2018-05-16T19:54:16.288Z,19.36
2018-05-16T19:56:46.064Z,19.14
2018-05-16T19:59:15.849Z,19.18
2018-05-16T20:01:44.132Z,19.18
2018-05-16T20:04:12.807Z,19.11
2018-05-16T20:06:41.137Z,18.93
2018-05-16T20:09:10.532Z,18.80
2018-05-16T20:11:39.643Z,18.80
2018-05-16T20:14:07.978Z,18.79
2018-05-16T20:16:36.761Z,18.68
2018-05-16T20:19:05.690Z,18.56
2018-05-16T20:21:35.032Z,18.65
2018-05-16T20:24:04.134Z,18.50
2018-05-16T20:26:34.318Z,18.30
2018-05-16T20:29:04.114Z,18.31
2018-05-16T20:31:32.515Z,18.19
2018-05-16T20:34:00.906Z,18.17
2018-05-16T20:36:30.500Z,18.01
2018-05-16T20:38:59.760Z,17.88
2018-05-16T20:41:28.065Z,18.01
2018-05-16T20:43:57.063Z,17.93
2018-05-16T20:46:25.521Z,17.85
2018-05-16T20:48:54.659Z,17.72
2018-05-16T20:51:23.089Z,17.57
2018-05-16T20:53:51.482Z,17.61
2018-05-16T20:56:20.704Z,17.54
2018-05-16T20:58:49.684Z,17.31
2018-05-16T21:01:18.442Z,17.16
2018-05-16T21:03:47.595Z,17.04
2018-05-16T21:06:16.534Z,17.14
2018-05-16T21:08:44.864Z,17.17
2018-05-16T21:11:14.273Z,17.05
2018-05-16T21:13:43.043Z,17.03
2018-05-16T21:16:11.667Z,16.88
2018-05-16T21:18:40.737Z,16.89
2018-05-16T21:21:09.282Z,16.83
2018-05-16T21:23:37.675Z,16.83
2018-05-16T21:26:06.383Z,16.65
2018-05-16T21:28:34.817Z,16.72
2018-05-16T21:31:03.862Z,16.48
2018-05-16T21:33:32.161Z,16.42
2018-05-16T21:36:00.496Z,16.41
2018-05-16T21:38:29.321Z,16.27
2018-05-16T21:40:57.609Z,16.30
2018-05-16T21:43:26.173Z,16.19
2018-05-16T21:45:55.281Z,16.18
2018-05-16T21:48:23.759Z,16.00
2018-05-16T21:50:52.059Z,15.92
2018-05-16T21:53:21.110Z,15.88
2018-05-16T21:55:49.769Z,15.81
2018-05-16T21:58:18.203Z,15.70
2018-05-16T22:00:47.134Z,15.62
2018-05-16T22:03:16.199Z,15.56
2018-05-16T22:05:44.573Z,15.53
2018-05-16T22:08:13.670Z,15.56
2018-05-16T22:10:43.528Z,15.53
2018-05-16T22:13:11.822Z,15.38
2018-05-16T22:15:40.138Z,15.23
2018-05-16T22:18:08.467Z,15.16
2018-05-16T22:20:37.261Z,15.19
2018-05-16T22:23:06.368Z,15.07
2018-05-16T22:25:35.238Z,14.97
2018-05-16T22:28:04.319Z,14.88
2018-05-16T22:30:39.421Z,14.84
2018-05-16T22:33:13.287Z,14.63
2018-05-16T22:35:47.119Z,14.51
2018-05-16T22:38:22.594Z,14.37
2018-05-16T22:40:56.471Z,14.43
2018-05-16T22:43:24.770Z,14.54
2018-05-16T22:45:55.240Z,14.42
2018-05-16T22:48:24.870Z,14.27
2018-05-16T22:50:53.375Z,14.11
2018-05-16T22:53:22.329Z,14.03
2018-05-16T22:55:51.603Z,13.99
2018-05-16T22:58:20.135Z,13.96
2018-05-16T23:00:49.863Z,13.83
2018-05-16T23:03:18.234Z,13.84
2018-05-16T23:05:46.842Z,13.78
2018-05-16T23:08:16.929Z,13.52
2018-05-16T23:10:45.223Z,13.47
2018-05-16T23:13:13.530Z,13.40
2018-05-16T23:15:42.154Z,13.24
2018-05-16T23:18:12.248Z,13.21
2018-05-16T23:20:40.566Z,13.09
2018-05-16T23:23:09.410Z,13.15
2018-05-16T23:25:37.801Z,13.02
2018-05-16T23:28:06.651Z,12.93
2018-05-16T23:30:34.975Z,12.91
2018-05-16T23:33:06.265Z,12.88
2018-05-16T23:35:35.277Z,12.70
2018-05-16T23:38:03.608Z,12.62
2018-05-16T23:40:33.054Z,12.47
2018-05-16T23:43:01.558Z,12.50
2018-05-16T23:45:29.855Z,12.47
2018-05-16T23:47:58.387Z,12.37
2018-05-16T23:50:26.826Z,12.35
2018-05-16T23:52:55.128Z,12.30
2018-05-16T23:55:24.287Z,12.32
2018-05-16T23:57:52.678Z,12.16
